sensor_id;sensor_type;location;lat;lon;timestamp;P1;P2;P0
68698;PMS7003;55680;48.850;2.310;2022-07-21T00:00:27;1.00;1.00;1.00
68698;PMS7003;55680;48.850;2.310;2022-07-21T00:02:53;0.25;0.25;0.00
68698;PMS7003;55680;48.850;2.310;2022-07-21T00:05:19;2.00;2.00;1.50
68698;PMS7003;55680;48.850;2.310;2022-07-21T00:07:45;2.00;2.00;0.75
68698;PMS7003;55680;48.850;2.310;2022-07-21T00:10:11;1.50;1.50;1.25
68698;PMS7003;55680;48.850;2.310;2022-07-21T00:12:37;2.00;2.00;2.00
68698;PMS7003;55680;48.850;2.310;2022-07-21T00:15:03;3.50;2.50;2.00
68698;PMS7003;55680;48.850;2.310;2022-07-21T00:17:29;2.00;2.00;1.00
68698;PMS7003;55680;48.850;2.310;2022-07-21T00:19:54;5.00;2.50;1.75
68698;PMS7003;55680;48.850;2.310;2022-07-21T00:22:19;6.00;2.50;2.00
68698;PMS7003;55680;48.850;2.310;2022-07-21T00:24:45;3.50;3.00;2.00
68698;PMS7003;55680;48.850;2.310;2022-07-21T00:27:10;1.50;1.00;1.00
68698;PMS7003;55680;48.850;2.310;2022-07-21T00:29:36;1.00;1.00;1.00
68698;PMS7003;55680;48.850;2.310;2022-07-21T00:32:01;4.00;1.75;1.75
68698;PMS7003;55680;48.850;2.310;2022-07-21T00:34:28;2.00;2.00;1.00
68698;PMS7003;55680;48.850;2.310;2022-07-21T00:36:54;2.50;2.00;1.00
68698;PMS7003;55680;48.850;2.310;2022-07-21T00:39:19;3.25;2.75;2.00
68698;PMS7003;55680;48.850;2.310;2022-07-21T00:41:44;2.25;2.00;1.00
68698;PMS7003;55680;48.850;2.310;2022-07-21T00:44:20;2.00;2.00;1.00
68698;PMS7003;55680;48.850;2.310;2022-07-21T00:46:50;1.00;1.00;1.00
68698;PMS7003;55680;48.850;2.310;2022-07-21T00:49:16;3.75;2.00;1.00
68698;PMS7003;55680;48.850;2.310;2022-07-21T00:51:42;4.00;3.00;3.00
68698;PMS7003;55680;48.850;2.310;2022-07-21T00:54:07;3.00;3.00;2.00
68698;PMS7003;55680;48.850;2.310;2022-07-21T00:56:33;3.75;2.00;2.00
68698;PMS7003;55680;48.850;2.310;2022-07-21T00:58:58;4.00;2.75;1.00
68698;PMS7003;55680;48.850;2.310;2022-07-21T01:01:23;4.00;3.00;2.00
68698;PMS7003;55680;48.850;2.310;2022-07-21T01:03:49;1.00;1.00;1.00
68698;PMS7003;55680;48.850;2.310;2022-07-21T01:06:14;3.50;1.50;1.00
68698;PMS7003;55680;48.850;2.310;2022-07-21T01:08:39;2.00;2.00;1.00
68698;PMS7003;55680;48.850;2.310;2022-07-21T01:11:05;4.75;2.50;1.00
68698;PMS7003;55680;48.850;2.310;2022-07-21T01:13:30;4.00;4.00;1.50
68698;PMS7003;55680;48.850;2.310;2022-07-21T01:15:56;1.00;1.00;1.00
68698;PMS7003;55680;48.850;2.310;2022-07-21T01:18:21;3.00;1.75;1.00
68698;PMS7003;55680;48.850;2.310;2022-07-21T01:20:54;3.00;3.00;2.75
68698;PMS7003;55680;48.850;2.310;2022-07-21T01:23:20;5.00;3.00;2.75
68698;PMS7003;55680;48.850;2.310;2022-07-21T01:25:47;4.75;1.00;1.00
68698;PMS7003;55680;48.850;2.310;2022-07-21T01:28:13;3.50;3.50;2.00
68698;PMS7003;55680;48.850;2.310;2022-07-21T01:30:38;4.00;2.50;2.00
68698;PMS7003;55680;48.850;2.310;2022-07-21T01:33:04;4.00;4.00;2.25
68698;PMS7003;55680;48.850;2.310;2022-07-21T01:35:29;5.75;5.00;2.00
68698;PMS7003;55680;48.850;2.310;2022-07-21T01:37:55;5.50;2.00;1.25
68698;PMS7003;55680;48.850;2.310;2022-07-21T01:40:20;3.50;3.00;1.75
68698;PMS7003;55680;48.850;2.310;2022-07-21T01:43:04;1.00;1.00;1.00
68698;PMS7003;55680;48.850;2.310;2022-07-21T01:45:30;7.00;3.00;2.00
68698;PMS7003;55680;48.850;2.310;2022-07-21T01:47:56;1.00;1.00;1.00
68698;PMS7003;55680;48.850;2.310;2022-07-21T01:50:22;2.00;2.00;2.00
68698;PMS7003;55680;48.850;2.310;2022-07-21T01:52:52;4.50;4.50;1.25
68698;PMS7003;55680;48.850;2.310;2022-07-21T01:55:18;4.50;2.25;1.00
68698;PMS7003;55680;48.850;2.310;2022-07-21T01:57:44;3.50;3.50;2.00
68698;PMS7003;55680;48.850;2.310;2022-07-21T02:00:09;3.00;1.00;1.00
68698;PMS7003;55680;48.850;2.310;2022-07-21T02:02:35;6.00;4.25;3.25
68698;PMS7003;55680;48.850;2.310;2022-07-21T02:05:01;4.25;4.25;2.00
68698;PMS7003;55680;48.850;2.310;2022-07-21T02:07:26;3.50;3.00;2.00
68698;PMS7003;55680;48.850;2.310;2022-07-21T02:09:52;3.75;3.75;2.00
68698;PMS7003;55680;48.850;2.310;2022-07-21T02:12:17;4.75;4.00;3.00
68698;PMS7003;55680;48.850;2.310;2022-07-21T02:14:42;5.25;4.25;2.00
68698;PMS7003;55680;48.850;2.310;2022-07-21T02:17:08;3.75;3.75;3.00
68698;PMS7003;55680;48.850;2.310;2022-07-21T02:19:33;7.00;5.00;3.00
68698;PMS7003;55680;48.850;2.310;2022-07-21T02:21:58;4.00;2.00;2.00
68698;PMS7003;55680;48.850;2.310;2022-07-21T02:24:24;6.75;6.25;4.00
68698;PMS7003;55680;48.850;2.310;2022-07-21T02:26:49;5.25;2.00;2.00
68698;PMS7003;55680;48.850;2.310;2022-07-21T02:29:15;4.00;4.00;4.00
68698;PMS7003;55680;48.850;2.310;2022-07-21T02:31:40;6.00;6.00;4.00
68698;PMS7003;55680;48.850;2.310;2022-07-21T02:34:05;3.50;3.00;3.00
68698;PMS7003;55680;48.850;2.310;2022-07-21T02:36:31;5.00;5.00;3.50
68698;PMS7003;55680;48.850;2.310;2022-07-21T02:38:57;7.00;6.00;4.25
68698;PMS7003;55680;48.850;2.310;2022-07-21T02:41:22;7.00;5.00;4.00
68698;PMS7003;55680;48.850;2.310;2022-07-21T02:43:48;5.00;5.00;4.00
68698;PMS7003;55680;48.850;2.310;2022-07-21T02:46:13;5.75;5.75;4.25
68698;PMS7003;55680;48.850;2.310;2022-07-21T02:48:38;6.75;4.25;3.00
68698;PMS7003;55680;48.850;2.310;2022-07-21T02:51:04;9.50;4.00;3.25
68698;PMS7003;55680;48.850;2.310;2022-07-21T02:53:29;8.75;8.75;5.00
68698;PMS7003;55680;48.850;2.310;2022-07-21T02:55:54;4.00;4.00;2.50
68698;PMS7003;55680;48.850;2.310;2022-07-21T02:58:24;8.00;6.00;4.00
68698;PMS7003;55680;48.850;2.310;2022-07-21T03:00:52;8.50;6.25;4.00
68698;PMS7003;55680;48.850;2.310;2022-07-21T03:03:23;7.25;7.25;4.00
68698;PMS7003;55680;48.850;2.310;2022-07-21T03:05:50;7.50;7.50;7.00
68698;PMS7003;55680;48.850;2.310;2022-07-21T03:08:15;9.25;9.25;5.50
68698;PMS7003;55680;48.850;2.310;2022-07-21T03:10:41;11.25;8.00;5.75
68698;PMS7003;55680;48.850;2.310;2022-07-21T03:13:07;16.75;12.50;8.00
68698;PMS7003;55680;48.850;2.310;2022-07-21T03:15:33;10.50;6.00;4.50
68698;PMS7003;55680;48.850;2.310;2022-07-21T03:17:59;9.50;9.50;7.25
68698;PMS7003;55680;48.850;2.310;2022-07-21T03:20:25;12.00;9.50;7.00
68698;PMS7003;55680;48.850;2.310;2022-07-21T03:22:51;12.25;9.00;6.00
68698;PMS7003;55680;48.850;2.310;2022-07-21T03:25:17;13.50;9.50;5.75
68698;PMS7003;55680;48.850;2.310;2022-07-21T03:27:42;7.50;7.50;6.75
68698;PMS7003;55680;48.850;2.310;2022-07-21T03:30:09;7.50;5.00;4.00
68698;PMS7003;55680;48.850;2.310;2022-07-21T03:32:35;6.75;6.50;4.00
68698;PMS7003;55680;48.850;2.310;2022-07-21T03:35:01;11.50;7.00;5.50
68698;PMS7003;55680;48.850;2.310;2022-07-21T03:37:26;12.25;6.00;3.00
68698;PMS7003;55680;48.850;2.310;2022-07-21T03:39:52;12.50;9.00;8.00
68698;PMS7003;55680;48.850;2.310;2022-07-21T03:42:18;9.00;9.00;6.00
68698;PMS7003;55680;48.850;2.310;2022-07-21T03:44:43;8.50;6.00;4.00
68698;PMS7003;55680;48.850;2.310;2022-07-21T03:47:08;13.50;9.75;7.00
68698;PMS7003;55680;48.850;2.310;2022-07-21T03:49:34;12.50;10.50;6.00
68698;PMS7003;55680;48.850;2.310;2022-07-21T03:51:59;18.50;9.50;6.00
68698;PMS7003;55680;48.850;2.310;2022-07-21T03:54:25;9.00;4.00;3.00
68698;PMS7003;55680;48.850;2.310;2022-07-21T03:56:50;9.25;7.50;5.00
68698;PMS7003;55680;48.850;2.310;2022-07-21T03:59:16;18.75;12.75;7.75
68698;PMS7003;55680;48.850;2.310;2022-07-21T04:01:42;16.50;15.50;10.75
68698;PMS7003;55680;48.850;2.310;2022-07-21T04:04:07;10.00;9.50;6.75
68698;PMS7003;55680;48.850;2.310;2022-07-21T04:06:33;14.75;10.25;7.00
68698;PMS7003;55680;48.850;2.310;2022-07-21T04:08:58;12.75;9.00;6.00
68698;PMS7003;55680;48.850;2.310;2022-07-21T04:11:23;18.50;12.00;9.00
68698;PMS7003;55680;48.850;2.310;2022-07-21T04:13:49;20.00;14.50;8.75
68698;PMS7003;55680;48.850;2.310;2022-07-21T04:16:14;16.00;13.00;9.50
68698;PMS7003;55680;48.850;2.310;2022-07-21T04:18:40;20.50;18.25;10.00
68698;PMS7003;55680;48.850;2.310;2022-07-21T04:21:05;17.00;14.00;10.25
68698;PMS7003;55680;48.850;2.310;2022-07-21T04:23:30;12.75;12.75;7.50
68698;PMS7003;55680;48.850;2.310;2022-07-21T04:25:56;18.25;15.25;9.75
68698;PMS7003;55680;48.850;2.310;2022-07-21T04:28:22;15.50;12.00;7.00
68698;PMS7003;55680;48.850;2.310;2022-07-21T04:30:47;22.50;12.25;8.75
68698;PMS7003;55680;48.850;2.310;2022-07-21T04:33:12;15.75;14.00;8.50
68698;PMS7003;55680;48.850;2.310;2022-07-21T04:35:38;14.25;13.00;9.75
68698;PMS7003;55680;48.850;2.310;2022-07-21T04:38:03;17.50;13.00;10.00
68698;PMS7003;55680;48.850;2.310;2022-07-21T04:40:29;21.50;18.00;13.00
68698;PMS7003;55680;48.850;2.310;2022-07-21T04:42:54;17.50;17.25;10.75
68698;PMS7003;55680;48.850;2.310;2022-07-21T04:45:19;23.25;19.50;12.00
68698;PMS7003;55680;48.850;2.310;2022-07-21T04:47:48;15.00;15.00;9.00
68698;PMS7003;55680;48.850;2.310;2022-07-21T04:50:20;17.25;14.00;10.50
68698;PMS7003;55680;48.850;2.310;2022-07-21T04:52:48;17.00;14.25;10.75
68698;PMS7003;55680;48.850;2.310;2022-07-21T04:55:14;15.50;13.00;7.25
68698;PMS7003;55680;48.850;2.310;2022-07-21T04:57:44;17.75;10.00;6.50
68698;PMS7003;55680;48.850;2.310;2022-07-21T05:00:12;21.00;15.00;10.00
68698;PMS7003;55680;48.850;2.310;2022-07-21T05:02:39;13.50;13.50;8.75
68698;PMS7003;55680;48.850;2.310;2022-07-21T05:05:05;21.50;15.00;11.25
68698;PMS7003;55680;48.850;2.310;2022-07-21T05:07:31;19.00;14.25;10.50
68698;PMS7003;55680;48.850;2.310;2022-07-21T05:09:57;17.75;13.00;9.50
68698;PMS7003;55680;48.850;2.310;2022-07-21T05:12:23;19.25;15.25;13.00
68698;PMS7003;55680;48.850;2.310;2022-07-21T05:14:49;11.25;11.00;8.00
68698;PMS7003;55680;48.850;2.310;2022-07-21T05:17:15;21.25;15.00;8.00
68698;PMS7003;55680;48.850;2.310;2022-07-21T05:19:40;19.25;15.00;9.75
68698;PMS7003;55680;48.850;2.310;2022-07-21T05:22:07;17.25;13.75;10.00
68698;PMS7003;55680;48.850;2.310;2022-07-21T05:24:33;18.75;13.50;6.50
68698;PMS7003;55680;48.850;2.310;2022-07-21T05:26:58;18.75;13.00;8.00
68698;PMS7003;55680;48.850;2.310;2022-07-21T05:29:23;25.25;15.50;11.25
68698;PMS7003;55680;48.850;2.310;2022-07-21T05:31:49;19.00;13.75;8.00
68698;PMS7003;55680;48.850;2.310;2022-07-21T05:34:14;17.25;14.00;9.50
68698;PMS7003;55680;48.850;2.310;2022-07-21T05:36:39;22.25;22.25;15.00
68698;PMS7003;55680;48.850;2.310;2022-07-21T05:39:05;21.50;20.50;13.00
68698;PMS7003;55680;48.850;2.310;2022-07-21T05:41:30;15.00;13.50;9.25
68698;PMS7003;55680;48.850;2.310;2022-07-21T05:43:56;17.25;15.00;10.00
68698;PMS7003;55680;48.850;2.310;2022-07-21T05:46:21;11.50;11.50;9.50
68698;PMS7003;55680;48.850;2.310;2022-07-21T05:48:46;20.25;18.50;12.00
68698;PMS7003;55680;48.850;2.310;2022-07-21T05:51:12;24.00;21.25;14.25
68698;PMS7003;55680;48.850;2.310;2022-07-21T05:53:37;15.00;7.75;4.00
68698;PMS7003;55680;48.850;2.310;2022-07-21T05:56:03;21.75;19.50;13.50
68698;PMS7003;55680;48.850;2.310;2022-07-21T05:58:28;18.75;17.00;12.00
68698;PMS7003;55680;48.850;2.310;2022-07-21T06:00:54;15.75;14.25;10.00
68698;PMS7003;55680;48.850;2.310;2022-07-21T06:03:38;20.00;10.00;7.00
68698;PMS7003;55680;48.850;2.310;2022-07-21T06:06:05;29.50;19.25;10.50
68698;PMS7003;55680;48.850;2.310;2022-07-21T06:08:30;22.00;17.00;11.00
68698;PMS7003;55680;48.850;2.310;2022-07-21T06:10:56;20.50;17.00;14.25
68698;PMS7003;55680;48.850;2.310;2022-07-21T06:13:21;23.00;18.25;12.75
68698;PMS7003;55680;48.850;2.310;2022-07-21T06:15:47;27.25;20.50;14.00
68698;PMS7003;55680;48.850;2.310;2022-07-21T06:18:12;14.50;11.00;7.25
68698;PMS7003;55680;48.850;2.310;2022-07-21T06:20:38;24.50;17.25;13.50
68698;PMS7003;55680;48.850;2.310;2022-07-21T06:23:04;19.00;16.00;9.50
68698;PMS7003;55680;48.850;2.310;2022-07-21T06:25:30;8.50;6.50;2.25
68698;PMS7003;55680;48.850;2.310;2022-07-21T06:27:55;27.00;22.00;15.50
68698;PMS7003;55680;48.850;2.310;2022-07-21T06:30:20;23.50;18.50;12.25
68698;PMS7003;55680;48.850;2.310;2022-07-21T06:32:46;28.75;23.25;15.50
68698;PMS7003;55680;48.850;2.310;2022-07-21T06:35:11;22.50;20.25;14.25
68698;PMS7003;55680;48.850;2.310;2022-07-21T06:37:37;21.00;20.00;12.75
68698;PMS7003;55680;48.850;2.310;2022-07-21T06:40:02;24.25;19.00;12.00
68698;PMS7003;55680;48.850;2.310;2022-07-21T06:42:28;22.50;21.50;14.00
68698;PMS7003;55680;48.850;2.310;2022-07-21T06:44:54;20.00;16.75;12.00
68698;PMS7003;55680;48.850;2.310;2022-07-21T06:47:19;18.25;15.00;10.75
68698;PMS7003;55680;48.850;2.310;2022-07-21T06:49:45;22.75;20.50;13.50
68698;PMS7003;55680;48.850;2.310;2022-07-21T06:52:10;20.50;20.50;15.50
68698;PMS7003;55680;48.850;2.310;2022-07-21T06:54:36;25.00;18.75;10.25
68698;PMS7003;55680;48.850;2.310;2022-07-21T06:57:01;21.50;19.25;14.25
68698;PMS7003;55680;48.850;2.310;2022-07-21T06:59:26;24.00;19.25;14.25
68698;PMS7003;55680;48.850;2.310;2022-07-21T07:01:52;30.00;21.50;15.25
68698;PMS7003;55680;48.850;2.310;2022-07-21T07:04:17;26.50;21.50;15.75
68698;PMS7003;55680;48.850;2.310;2022-07-21T07:06:42;14.50;14.00;9.25
68698;PMS7003;55680;48.850;2.310;2022-07-21T07:09:08;21.00;17.50;13.25
68698;PMS7003;55680;48.850;2.310;2022-07-21T07:11:33;22.00;18.50;12.00
68698;PMS7003;55680;48.850;2.310;2022-07-21T07:13:59;18.50;17.75;12.00
68698;PMS7003;55680;48.850;2.310;2022-07-21T07:16:25;18.50;15.75;11.00
68698;PMS7003;55680;48.850;2.310;2022-07-21T07:18:50;25.25;21.50;12.75
68698;PMS7003;55680;48.850;2.310;2022-07-21T07:21:15;22.25;14.25;9.75
68698;PMS7003;55680;48.850;2.310;2022-07-21T07:23:41;19.25;19.00;13.75
68698;PMS7003;55680;48.850;2.310;2022-07-21T07:26:07;22.00;20.75;14.00
68698;PMS7003;55680;48.850;2.310;2022-07-21T07:28:33;26.00;20.50;15.50
68698;PMS7003;55680;48.850;2.310;2022-07-21T07:30:58;17.25;15.50;10.00
68698;PMS7003;55680;48.850;2.310;2022-07-21T07:33:24;16.00;14.50;10.75
68698;PMS7003;55680;48.850;2.310;2022-07-21T07:35:50;20.75;18.25;11.75
68698;PMS7003;55680;48.850;2.310;2022-07-21T07:38:16;23.75;20.75;14.50
68698;PMS7003;55680;48.850;2.310;2022-07-21T07:40:41;24.75;19.50;13.25
68698;PMS7003;55680;48.850;2.310;2022-07-21T07:43:07;23.00;19.75;13.25
68698;PMS7003;55680;48.850;2.310;2022-07-21T07:45:33;24.25;20.00;14.00
68698;PMS7003;55680;48.850;2.310;2022-07-21T07:47:59;22.75;21.00;12.75
68698;PMS7003;55680;48.850;2.310;2022-07-21T07:50:25;16.50;16.50;12.00
68698;PMS7003;55680;48.850;2.310;2022-07-21T07:52:51;22.00;20.75;11.75
68698;PMS7003;55680;48.850;2.310;2022-07-21T07:55:17;21.50;18.50;14.25
68698;PMS7003;55680;48.850;2.310;2022-07-21T07:57:42;25.75;20.25;14.00
68698;PMS7003;55680;48.850;2.310;2022-07-21T08:00:09;19.25;18.00;15.00
68698;PMS7003;55680;48.850;2.310;2022-07-21T08:02:36;20.75;20.75;14.00
68698;PMS7003;55680;48.850;2.310;2022-07-21T08:05:02;24.00;24.00;16.00
68698;PMS7003;55680;48.850;2.310;2022-07-21T08:07:28;23.25;23.25;13.75
68698;PMS7003;55680;48.850;2.310;2022-07-21T08:09:54;19.50;17.50;12.50
68698;PMS7003;55680;48.850;2.310;2022-07-21T08:12:19;27.75;23.00;14.75
68698;PMS7003;55680;48.850;2.310;2022-07-21T08:14:45;25.00;24.75;16.75
68698;PMS7003;55680;48.850;2.310;2022-07-21T08:17:10;23.75;20.75;13.50
68698;PMS7003;55680;48.850;2.310;2022-07-21T08:19:35;26.50;22.75;15.50
68698;PMS7003;55680;48.850;2.310;2022-07-21T08:22:01;25.00;19.50;13.75
68698;PMS7003;55680;48.850;2.310;2022-07-21T08:24:26;21.00;19.00;15.00
68698;PMS7003;55680;48.850;2.310;2022-07-21T08:26:52;19.50;19.00;14.75
68698;PMS7003;55680;48.850;2.310;2022-07-21T08:29:17;21.50;20.50;13.75
68698;PMS7003;55680;48.850;2.310;2022-07-21T08:31:43;18.00;13.25;9.25
68698;PMS7003;55680;48.850;2.310;2022-07-21T08:34:08;27.75;24.00;16.25
68698;PMS7003;55680;48.850;2.310;2022-07-21T08:36:34;23.00;22.75;16.00
68698;PMS7003;55680;48.850;2.310;2022-07-21T08:38:59;20.75;20.75;12.25
68698;PMS7003;55680;48.850;2.310;2022-07-21T08:41:25;37.50;29.25;17.75
68698;PMS7003;55680;48.850;2.310;2022-07-21T08:43:50;21.25;20.75;12.00
68698;PMS7003;55680;48.850;2.310;2022-07-21T08:46:16;21.75;19.25;14.50
68698;PMS7003;55680;48.850;2.310;2022-07-21T08:48:42;31.00;24.75;17.00
68698;PMS7003;55680;48.850;2.310;2022-07-21T08:51:07;23.75;22.00;13.50
68698;PMS7003;55680;48.850;2.310;2022-07-21T08:53:33;23.75;22.50;14.50
68698;PMS7003;55680;48.850;2.310;2022-07-21T08:55:59;27.25;23.50;14.75
68698;PMS7003;55680;48.850;2.310;2022-07-21T08:58:24;24.25;24.25;15.25
68698;PMS7003;55680;48.850;2.310;2022-07-21T09:00:50;23.50;22.50;15.25
68698;PMS7003;55680;48.850;2.310;2022-07-21T09:03:17;25.75;20.75;13.00
68698;PMS7003;55680;48.850;2.310;2022-07-21T09:06:03;31.00;27.25;15.75
68698;PMS7003;55680;48.850;2.310;2022-07-21T09:08:35;21.25;18.75;12.75
68698;PMS7003;55680;48.850;2.310;2022-07-21T09:13:43;19.25;17.25;10.75
68698;PMS7003;55680;48.850;2.310;2022-07-21T09:16:10;18.50;16.00;11.25
68698;PMS7003;55680;48.850;2.310;2022-07-21T09:18:48;24.25;18.50;12.50
68698;PMS7003;55680;48.850;2.310;2022-07-21T09:21:16;19.50;19.50;13.00
68698;PMS7003;55680;48.850;2.310;2022-07-21T09:23:42;21.25;17.75;12.50
68698;PMS7003;55680;48.850;2.310;2022-07-21T09:26:07;21.50;18.25;12.00
68698;PMS7003;55680;48.850;2.310;2022-07-21T09:28:33;19.00;15.50;12.00
68698;PMS7003;55680;48.850;2.310;2022-07-21T09:31:05;17.50;15.75;10.50
68698;PMS7003;55680;48.850;2.310;2022-07-21T09:36:11;19.75;18.75;13.25
68698;PMS7003;55680;48.850;2.310;2022-07-21T09:38:42;16.00;16.00;12.25
68698;PMS7003;55680;48.850;2.310;2022-07-21T09:41:21;19.25;18.00;11.00
68698;PMS7003;55680;48.850;2.310;2022-07-21T09:43:48;20.50;15.50;11.00
68698;PMS7003;55680;48.850;2.310;2022-07-21T09:46:25;17.25;15.75;11.75
68698;PMS7003;55680;48.850;2.310;2022-07-21T09:48:54;20.00;19.00;14.75
68698;PMS7003;55680;48.850;2.310;2022-07-21T09:51:37;21.00;18.50;13.75
68698;PMS7003;55680;48.850;2.310;2022-07-21T09:56:30;19.50;17.25;13.50
68698;PMS7003;55680;48.850;2.310;2022-07-21T09:58:57;22.25;18.75;13.25
68698;PMS7003;55680;48.850;2.310;2022-07-21T10:01:24;18.75;15.00;10.00
68698;PMS7003;55680;48.850;2.310;2022-07-21T10:03:50;19.75;15.25;12.00
68698;PMS7003;55680;48.850;2.310;2022-07-21T10:06:18;14.25;14.25;11.25
68698;PMS7003;55680;48.850;2.310;2022-07-21T10:08:45;17.75;13.75;11.00
68698;PMS7003;55680;48.850;2.310;2022-07-21T10:11:10;17.50;17.50;10.75
68698;PMS7003;55680;48.850;2.310;2022-07-21T10:13:36;15.00;15.00;10.25
68698;PMS7003;55680;48.850;2.310;2022-07-21T10:16:02;16.75;15.75;11.50
68698;PMS7003;55680;48.850;2.310;2022-07-21T10:18:28;15.50;14.00;10.00
68698;PMS7003;55680;48.850;2.310;2022-07-21T10:21:02;15.75;15.75;10.25
68698;PMS7003;55680;48.850;2.310;2022-07-21T10:23:43;13.50;13.50;11.50
68698;PMS7003;55680;48.850;2.310;2022-07-21T10:26:10;18.25;15.25;11.00
68698;PMS7003;55680;48.850;2.310;2022-07-21T10:28:36;22.75;19.25;13.75
68698;PMS7003;55680;48.850;2.310;2022-07-21T10:41:37;18.75;15.75;11.00
68698;PMS7003;55680;48.850;2.310;2022-07-21T10:44:03;15.25;15.25;10.75
68698;PMS7003;55680;48.850;2.310;2022-07-21T10:55:15;16.25;16.25;11.25
68698;PMS7003;55680;48.850;2.310;2022-07-21T10:58:13;15.50;14.50;11.25
68698;PMS7003;55680;48.850;2.310;2022-07-21T11:08:32;17.75;16.00;12.25
68698;PMS7003;55680;48.850;2.310;2022-07-21T11:11:06;20.50;18.25;12.00
68698;PMS7003;55680;48.850;2.310;2022-07-21T11:22:15;15.00;13.50;10.50
68698;PMS7003;55680;48.850;2.310;2022-07-21T11:24:55;16.25;13.25;9.00
68698;PMS7003;55680;48.850;2.310;2022-07-21T11:27:25;16.25;14.00;9.50
68698;PMS7003;55680;48.850;2.310;2022-07-21T11:29:56;13.25;11.75;9.50
68698;PMS7003;55680;48.850;2.310;2022-07-21T11:32:23;17.75;13.50;9.50
68698;PMS7003;55680;48.850;2.310;2022-07-21T11:34:50;19.75;14.75;10.25
68698;PMS7003;55680;48.850;2.310;2022-07-21T11:37:33;13.50;13.50;9.75
68698;PMS7003;55680;48.850;2.310;2022-07-21T11:39:59;21.25;16.75;12.25
68698;PMS7003;55680;48.850;2.310;2022-07-21T11:42:26;14.50;13.50;10.50
68698;PMS7003;55680;48.850;2.310;2022-07-21T11:44:52;17.75;16.00;12.50
68698;PMS7003;55680;48.850;2.310;2022-07-21T11:47:18;15.25;14.75;10.00
68698;PMS7003;55680;48.850;2.310;2022-07-21T11:49:45;18.50;16.75;11.25
68698;PMS7003;55680;48.850;2.310;2022-07-21T11:52:12;15.00;14.00;9.75
68698;PMS7003;55680;48.850;2.310;2022-07-21T11:54:46;15.25;15.25;11.75
68698;PMS7003;55680;48.850;2.310;2022-07-21T11:57:16;13.75;13.75;11.25
68698;PMS7003;55680;48.850;2.310;2022-07-21T11:59:43;18.00;15.50;11.75
68698;PMS7003;55680;48.850;2.310;2022-07-21T12:02:13;13.25;13.25;10.50
68698;PMS7003;55680;48.850;2.310;2022-07-21T12:04:51;16.50;14.00;10.75
68698;PMS7003;55680;48.850;2.310;2022-07-21T12:07:24;16.75;16.75;10.75
68698;PMS7003;55680;48.850;2.310;2022-07-21T12:10:02;17.25;13.00;9.50
68698;PMS7003;55680;48.850;2.310;2022-07-21T12:12:35;14.50;14.50;10.50
68698;PMS7003;55680;48.850;2.310;2022-07-21T12:17:37;15.75;12.25;10.00
68698;PMS7003;55680;48.850;2.310;2022-07-21T12:20:04;15.75;14.25;10.50
68698;PMS7003;55680;48.850;2.310;2022-07-21T12:24:59;14.00;13.25;10.25
68698;PMS7003;55680;48.850;2.310;2022-07-21T12:27:25;15.50;15.50;10.25
68698;PMS7003;55680;48.850;2.310;2022-07-21T12:29:51;18.50;15.50;11.00
68698;PMS7003;55680;48.850;2.310;2022-07-21T12:32:36;20.25;15.75;11.25
68698;PMS7003;55680;48.850;2.310;2022-07-21T12:35:03;12.50;12.50;10.50
68698;PMS7003;55680;48.850;2.310;2022-07-21T12:40:17;12.75;12.75;10.00
68698;PMS7003;55680;48.850;2.310;2022-07-21T12:42:44;20.50;17.50;10.75
68698;PMS7003;55680;48.850;2.310;2022-07-21T12:45:14;13.50;10.25;8.50
68698;PMS7003;55680;48.850;2.310;2022-07-21T12:47:39;16.25;14.25;9.50
68698;PMS7003;55680;48.850;2.310;2022-07-21T12:50:06;18.50;15.00;9.50
68698;PMS7003;55680;48.850;2.310;2022-07-21T12:52:33;16.75;12.75;10.00
68698;PMS7003;55680;48.850;2.310;2022-07-21T12:54:59;18.50;15.75;9.75
68698;PMS7003;55680;48.850;2.310;2022-07-21T12:57:29;18.25;16.50;11.25
68698;PMS7003;55680;48.850;2.310;2022-07-21T12:59:57;15.50;12.25;9.50
68698;PMS7003;55680;48.850;2.310;2022-07-21T13:02:24;13.75;12.00;10.25
68698;PMS7003;55680;48.850;2.310;2022-07-21T13:04:50;18.50;12.00;9.25
68698;PMS7003;55680;48.850;2.310;2022-07-21T13:07:16;16.25;13.25;10.25
68698;PMS7003;55680;48.850;2.310;2022-07-21T13:09:42;19.00;17.00;12.50
68698;PMS7003;55680;48.850;2.310;2022-07-21T13:12:07;14.00;13.50;9.25
68698;PMS7003;55680;48.850;2.310;2022-07-21T13:14:33;13.25;12.50;9.50
68698;PMS7003;55680;48.850;2.310;2022-07-21T13:16:58;14.00;12.50;9.75
68698;PMS7003;55680;48.850;2.310;2022-07-21T13:19:24;15.25;13.25;10.25
68698;PMS7003;55680;48.850;2.310;2022-07-21T13:21:50;15.25;13.00;9.50
68698;PMS7003;55680;48.850;2.310;2022-07-21T13:24:16;11.00;10.00;7.75
68698;PMS7003;55680;48.850;2.310;2022-07-21T13:26:41;19.00;15.50;10.50
68698;PMS7003;55680;48.850;2.310;2022-07-21T13:29:07;14.75;12.00;9.00
68698;PMS7003;55680;48.850;2.310;2022-07-21T13:31:33;11.75;11.75;9.25
68698;PMS7003;55680;48.850;2.310;2022-07-21T13:34:01;19.50;16.00;10.25
68698;PMS7003;55680;48.850;2.310;2022-07-21T13:36:32;12.75;10.75;7.50
68698;PMS7003;55680;48.850;2.310;2022-07-21T13:38:58;14.25;11.75;8.00
68698;PMS7003;55680;48.850;2.310;2022-07-21T13:41:24;11.75;11.75;9.00
68698;PMS7003;55680;48.850;2.310;2022-07-21T13:43:50;13.75;13.75;10.75
68698;PMS7003;55680;48.850;2.310;2022-07-21T13:46:16;17.25;12.25;9.50
68698;PMS7003;55680;48.850;2.310;2022-07-21T13:48:41;13.50;11.75;10.50
68698;PMS7003;55680;48.850;2.310;2022-07-21T13:51:07;19.00;15.75;11.25
68698;PMS7003;55680;48.850;2.310;2022-07-21T13:53:34;17.50;15.00;10.00
68698;PMS7003;55680;48.850;2.310;2022-07-21T13:55:59;16.00;12.50;11.50
68698;PMS7003;55680;48.850;2.310;2022-07-21T13:58:25;13.75;12.50;8.00
68698;PMS7003;55680;48.850;2.310;2022-07-21T14:00:50;17.00;14.00;11.25
68698;PMS7003;55680;48.850;2.310;2022-07-21T14:03:16;17.00;15.25;11.25
68698;PMS7003;55680;48.850;2.310;2022-07-21T14:05:41;13.75;13.00;10.50
68698;PMS7003;55680;48.850;2.310;2022-07-21T14:08:07;13.50;13.50;11.25
68698;PMS7003;55680;48.850;2.310;2022-07-21T14:10:32;17.75;17.75;11.75
68698;PMS7003;55680;48.850;2.310;2022-07-21T14:12:58;23.25;18.50;12.50
68698;PMS7003;55680;48.850;2.310;2022-07-21T14:15:23;17.00;15.50;10.75
68698;PMS7003;55680;48.850;2.310;2022-07-21T14:17:49;15.50;14.75;11.75
68698;PMS7003;55680;48.850;2.310;2022-07-21T14:20:14;17.00;17.00;12.00
68698;PMS7003;55680;48.850;2.310;2022-07-21T14:22:40;18.50;13.50;9.50
68698;PMS7003;55680;48.850;2.310;2022-07-21T14:25:05;17.25;15.75;10.00
68698;PMS7003;55680;48.850;2.310;2022-07-21T14:27:44;12.25;12.25;10.00
68698;PMS7003;55680;48.850;2.310;2022-07-21T14:30:13;15.50;15.50;11.25
68698;PMS7003;55680;48.850;2.310;2022-07-21T14:32:39;16.50;15.50;11.50
68698;PMS7003;55680;48.850;2.310;2022-07-21T14:35:05;15.00;11.75;9.50
68698;PMS7003;55680;48.850;2.310;2022-07-21T14:37:30;19.25;15.50;10.75
68698;PMS7003;55680;48.850;2.310;2022-07-21T14:39:56;13.75;13.25;10.25
68698;PMS7003;55680;48.850;2.310;2022-07-21T14:42:21;16.00;16.00;12.00
68698;PMS7003;55680;48.850;2.310;2022-07-21T14:44:48;18.00;13.25;10.25
68698;PMS7003;55680;48.850;2.310;2022-07-21T14:47:14;16.00;15.75;12.25